createdAt,value
2023-05-02T00:00:35.572Z,28.84
2023-05-02T00:01:35.600Z,28.90
2023-05-02T00:02:35.757Z,28.90
2023-05-02T00:03:35.771Z,28.90
2023-05-02T00:04:35.728Z,28.91
2023-05-02T00:05:35.736Z,28.89
2023-05-02T00:06:35.822Z,28.88
2023-05-02T00:07:35.793Z,28.87
2023-05-02T00:08:35.838Z,28.91
2023-05-02T00:09:35.874Z,28.88
2023-05-02T00:10:35.908Z,28.88
2023-05-02T00:11:35.930Z,28.91
2023-05-02T00:12:35.967Z,28.90
2023-05-02T00:13:36.006Z,28.90
2023-05-02T00:14:36.052Z,28.88
2023-05-02T00:15:36.089Z,28.93
2023-05-02T00:16:36.179Z,28.93
2023-05-02T00:17:36.183Z,28.96
2023-05-02T00:18:36.208Z,28.94
2023-05-02T00:19:36.216Z,28.90
2023-05-02T00:20:36.261Z,28.94
2023-05-02T00:21:36.291Z,28.97
2023-05-02T00:22:36.340Z,28.94
2023-05-02T00:23:36.379Z,28.95
2023-05-02T00:24:36.417Z,28.91
2023-05-02T00:25:36.453Z,28.95
2023-05-02T00:26:36.474Z,28.93
2023-05-02T00:27:36.520Z,28.96
2023-05-02T00:28:36.563Z,28.94
2023-05-02T00:29:36.570Z,28.91
2023-05-02T00:30:36.628Z,28.97
2023-05-02T00:31:36.680Z,28.96
2023-05-02T00:32:36.728Z,28.94
2023-05-02T00:33:36.700Z,28.96
2023-05-02T00:34:36.747Z,28.93
2023-05-02T00:35:36.765Z,28.94
2023-05-02T00:36:36.839Z,28.93
2023-05-02T00:37:36.850Z,28.94
2023-05-02T00:38:36.887Z,28.93
2023-05-02T00:39:36.922Z,28.91
2023-05-02T00:40:36.956Z,28.93
2023-05-02T00:41:37.012Z,28.90
2023-05-02T00:42:37.036Z,28.96
2023-05-02T00:43:37.009Z,28.94
2023-05-02T00:44:36.991Z,28.91
2023-05-02T00:45:36.974Z,28.98
2023-05-02T00:46:37.022Z,28.98
2023-05-02T00:47:36.970Z,28.94
2023-05-02T00:48:36.930Z,28.94
2023-05-02T00:49:36.924Z,28.97
2023-05-02T00:50:36.890Z,28.96
2023-05-02T00:51:36.866Z,28.96
2023-05-02T00:52:36.855Z,28.98
2023-05-02T00:53:36.818Z,28.96
2023-05-02T00:54:36.862Z,28.96
2023-05-02T00:55:36.901Z,28.97
2023-05-02T00:56:36.946Z,28.98
2023-05-02T00:57:36.975Z,28.96
2023-05-02T00:58:37.019Z,28.97
2023-05-02T00:59:37.080Z,29.00
2023-05-02T01:00:37.087Z,28.94
2023-05-02T01:01:37.197Z,29.00
2023-05-02T01:02:37.234Z,28.95
2023-05-02T01:03:37.338Z,28.94
2023-05-02T01:04:37.252Z,28.95
2023-05-02T01:05:37.281Z,28.97
2023-05-02T01:06:37.363Z,28.97
2023-05-02T01:07:37.377Z,28.97
2023-05-02T01:08:37.389Z,28.98
2023-05-02T01:09:37.358Z,28.96
2023-05-02T01:10:37.339Z,29.01
2023-05-02T01:11:37.328Z,29.04
2023-05-02T01:12:37.303Z,28.94
2023-05-02T01:13:37.265Z,29.01
2023-05-02T01:14:37.234Z,29.00
2023-05-02T01:15:37.211Z,28.96
2023-05-02T01:16:37.262Z,28.98
2023-05-02T01:17:37.194Z,29.01
2023-05-02T01:18:37.152Z,29.00
2023-05-02T01:19:37.144Z,28.98
2023-05-02T01:20:37.115Z,28.97
2023-05-02T01:21:37.092Z,28.96
2023-05-02T01:22:37.069Z,28.98
2023-05-02T01:23:37.070Z,28.98
2023-05-02T01:24:37.126Z,29.03
2023-05-02T01:25:37.147Z,28.97
2023-05-02T01:26:37.201Z,28.98
2023-05-02T01:27:37.230Z,29.04
2023-05-02T01:28:37.320Z,28.98
2023-05-02T01:29:37.318Z,29.04
2023-05-02T01:30:37.361Z,29.04
2023-05-02T01:31:37.386Z,29.00
2023-05-02T01:32:37.364Z,29.01
2023-05-02T01:33:37.289Z,29.03
2023-05-02T01:34:37.267Z,29.03
2023-05-02T01:35:37.233Z,29.01
2023-05-02T01:36:37.217Z,29.03
2023-05-02T01:37:37.181Z,29.05
2023-05-02T01:38:37.161Z,29.05
2023-05-02T01:39:37.130Z,29.10
2023-05-02T01:40:37.142Z,29.07
2023-05-02T01:41:37.190Z,29.05
2023-05-02T01:42:37.256Z,29.03
2023-05-02T01:43:37.282Z,29.03
2023-05-02T01:44:37.323Z,29.05
2023-05-02T01:45:37.352Z,29.07
2023-05-02T01:46:37.428Z,29.04
2023-05-02T01:47:37.497Z,29.05
2023-05-02T01:48:37.464Z,29.01
2023-05-02T01:49:37.501Z,28.98
2023-05-02T01:50:37.439Z,29.04
2023-05-02T01:51:37.411Z,29.02
2023-05-02T01:52:37.372Z,29.03
2023-05-02T01:53:37.347Z,29.02
2023-05-02T01:54:37.328Z,29.05
2023-05-02T01:55:37.303Z,29.05
2023-05-02T01:56:37.285Z,29.04
2023-05-02T01:57:37.258Z,29.04
2023-05-02T01:58:37.232Z,29.05
2023-05-02T01:59:37.222Z,29.05
2023-05-02T02:00:38.808Z,29.08
2023-05-02T02:01:37.304Z,29.07
2023-05-02T02:02:37.287Z,29.02
2023-05-02T02:03:37.300Z,29.04
2023-05-02T02:04:37.285Z,29.04
2023-05-02T02:05:37.210Z,29.01
2023-05-02T02:06:37.277Z,29.07
2023-05-02T02:07:37.161Z,29.05
2023-05-02T02:08:37.134Z,29.05
2023-05-02T02:09:37.125Z,29.07
2023-05-02T02:10:37.106Z,29.05
2023-05-02T02:11:37.064Z,29.05
2023-05-02T02:12:37.063Z,29.07
2023-05-02T02:13:37.023Z,29.07
2023-05-02T02:14:37.060Z,29.05
2023-05-02T02:15:37.071Z,29.11
2023-05-02T02:16:37.184Z,29.05
2023-05-02T02:17:37.251Z,29.01
2023-05-02T02:18:37.200Z,29.08
2023-05-02T02:19:37.235Z,29.01
2023-05-02T02:20:37.281Z,29.10
2023-05-02T02:21:37.338Z,29.07
2023-05-02T02:22:37.349Z,29.07
2023-05-02T02:23:37.431Z,29.11
2023-05-02T02:24:37.420Z,29.08
2023-05-02T02:25:37.460Z,29.06
2023-05-02T02:26:37.508Z,29.04
2023-05-02T02:27:37.546Z,29.12
2023-05-02T02:28:37.575Z,29.04
2023-05-02T02:29:37.616Z,29.10
2023-05-02T02:30:37.662Z,29.02
2023-05-02T02:31:37.692Z,29.11
2023-05-02T02:32:37.828Z,29.04
2023-05-02T02:33:37.774Z,29.07
2023-05-02T02:34:37.814Z,29.04
2023-05-02T02:35:37.854Z,29.08
2023-05-02T02:36:37.891Z,29.10
2023-05-02T02:37:37.920Z,29.06
2023-05-02T02:38:37.981Z,29.04
2023-05-02T02:39:38.026Z,29.10
2023-05-02T02:40:38.090Z,29.11
2023-05-02T02:41:38.119Z,29.10
2023-05-02T02:42:38.149Z,29.11
2023-05-02T02:43:38.191Z,29.10
2023-05-02T02:44:38.240Z,29.10
2023-05-02T02:45:38.275Z,29.08
2023-05-02T02:46:38.472Z,29.08
2023-05-02T02:47:38.402Z,29.08
2023-05-02T02:48:38.414Z,29.08
2023-05-02T02:49:38.392Z,29.08
2023-05-02T02:50:38.381Z,29.11
2023-05-02T02:51:38.367Z,29.12
2023-05-02T02:52:38.330Z,29.09
2023-05-02T02:53:38.318Z,29.11
2023-05-02T02:54:38.299Z,29.12
2023-05-02T02:55:38.277Z,29.08
2023-05-02T02:56:38.261Z,29.15
2023-05-02T02:57:38.225Z,29.09
2023-05-02T02:58:38.228Z,29.09
2023-05-02T02:59:38.277Z,29.12
2023-05-02T03:00:38.323Z,29.08
2023-05-02T03:01:38.447Z,28.78
2023-05-02T03:02:38.423Z,28.56
2023-05-02T03:03:38.531Z,28.46
2023-05-02T03:04:38.494Z,28.34
2023-05-02T03:05:38.477Z,28.28
2023-05-02T03:06:38.583Z,28.19
2023-05-02T03:07:38.448Z,28.14
2023-05-02T03:08:38.451Z,28.07
2023-05-02T03:09:38.470Z,28.04
2023-05-02T03:10:38.460Z,28.02
2023-05-02T03:11:38.476Z,28.06
2023-05-02T03:12:38.474Z,28.03
2023-05-02T03:13:38.479Z,28.01
2023-05-02T03:14:38.489Z,27.97
2023-05-02T03:15:38.573Z,27.92
2023-05-02T03:16:38.607Z,27.93
2023-05-02T03:17:38.588Z,27.96
2023-05-02T03:18:38.512Z,27.98
2023-05-02T03:19:38.501Z,28.00
2023-05-02T03:20:38.472Z,28.02
2023-05-02T03:21:38.460Z,27.98
2023-05-02T03:22:38.438Z,27.98
2023-05-02T03:23:38.408Z,27.98
2023-05-02T03:24:38.417Z,28.00
2023-05-02T03:25:38.376Z,28.02
2023-05-02T03:26:38.392Z,28.03
2023-05-02T03:27:38.431Z,27.96
2023-05-02T03:28:38.475Z,27.96
2023-05-02T03:29:38.506Z,27.96
2023-05-02T03:30:38.570Z,27.92
2023-05-02T03:31:38.649Z,27.97
2023-05-02T03:32:38.756Z,27.96
2023-05-02T03:33:38.720Z,27.96
2023-05-02T03:34:38.768Z,27.98
2023-05-02T03:35:38.799Z,27.97
2023-05-02T03:36:38.839Z,27.99
2023-05-02T03:37:38.852Z,28.00
2023-05-02T03:38:38.849Z,27.93
2023-05-02T03:39:38.841Z,27.97
2023-05-02T03:40:38.903Z,27.97
2023-05-02T03:41:38.871Z,27.96
2023-05-02T03:42:38.809Z,27.98
2023-05-02T03:43:38.810Z,27.97
2023-05-02T03:44:38.799Z,27.95
2023-05-02T03:45:38.787Z,27.95
2023-05-02T03:46:38.836Z,27.95
2023-05-02T03:47:38.790Z,28.05
2023-05-02T03:48:38.768Z,27.98
2023-05-02T03:49:38.732Z,27.98
2023-05-02T03:50:38.724Z,27.92
2023-05-02T03:51:38.722Z,28.01
2023-05-02T03:52:38.699Z,27.97
2023-05-02T03:53:38.709Z,27.97
2023-05-02T03:54:38.664Z,27.92
2023-05-02T03:55:38.652Z,27.96
2023-05-02T03:56:39.814Z,27.96
2023-05-02T03:57:38.634Z,28.00
2023-05-02T03:58:38.605Z,27.98
2023-05-02T03:59:38.603Z,27.96
2023-05-02T04:00:38.584Z,27.97
2023-05-02T04:01:38.604Z,27.96
2023-05-02T04:02:38.718Z,28.00
2023-05-02T04:03:38.671Z,27.98
2023-05-02T04:04:38.729Z,27.96
2023-05-02T04:05:38.541Z,27.96
2023-05-02T04:06:38.673Z,27.98
2023-05-02T04:07:38.484Z,27.99
2023-05-02T04:08:38.471Z,27.89
2023-05-02T04:09:38.459Z,27.89
2023-05-02T04:10:38.441Z,27.93
2023-05-02T04:11:38.460Z,27.95
2023-05-02T04:12:38.423Z,27.93
2023-05-02T04:13:38.427Z,27.89
2023-05-02T04:14:38.392Z,27.91
2023-05-02T04:15:38.384Z,27.90
2023-05-02T04:16:38.418Z,27.85
2023-05-02T04:17:38.418Z,27.86
2023-05-02T04:18:38.357Z,27.85
2023-05-02T04:19:38.349Z,27.87
2023-05-02T04:20:38.326Z,27.86
2023-05-02T04:21:38.320Z,27.93
2023-05-02T04:22:38.308Z,27.87
2023-05-02T04:23:38.288Z,27.85
2023-05-02T04:24:38.300Z,27.80
2023-05-02T04:25:38.282Z,27.87
2023-05-02T04:26:38.265Z,27.88
2023-05-02T04:27:38.266Z,27.87
2023-05-02T04:28:38.239Z,27.91
2023-05-02T04:29:38.251Z,27.92
2023-05-02T04:30:38.254Z,27.90
2023-05-02T04:31:38.216Z,27.90
2023-05-02T04:32:38.275Z,27.90
2023-05-02T04:33:38.203Z,27.87
2023-05-02T04:34:38.177Z,27.87
2023-05-02T04:35:38.178Z,27.84
2023-05-02T04:36:38.141Z,27.85
2023-05-02T04:37:38.184Z,27.85
2023-05-02T04:38:38.128Z,27.85
2023-05-02T04:39:38.131Z,27.89
2023-05-02T04:40:38.132Z,27.89
2023-05-02T04:41:38.105Z,27.91
2023-05-02T04:42:38.115Z,27.86
2023-05-02T04:43:38.125Z,27.88
2023-05-02T04:44:38.156Z,27.86
2023-05-02T04:45:38.159Z,27.88
2023-05-02T04:46:38.254Z,27.83
2023-05-02T04:47:38.242Z,27.86
2023-05-02T04:48:38.231Z,27.89
2023-05-02T04:49:38.246Z,27.85
2023-05-02T04:50:38.287Z,27.91
2023-05-02T04:51:38.324Z,27.91
2023-05-02T04:52:38.328Z,27.87
2023-05-02T04:53:38.304Z,27.96
2023-05-02T04:54:38.307Z,27.94
2023-05-02T04:55:38.294Z,27.93
2023-05-02T04:56:38.301Z,27.97
2023-05-02T04:57:38.288Z,27.98
2023-05-02T04:58:38.322Z,28.02
2023-05-02T04:59:38.262Z,27.94
2023-05-02T05:00:38.283Z,27.93
2023-05-02T05:01:38.311Z,27.99
2023-05-02T05:02:38.372Z,27.93
2023-05-02T05:03:38.325Z,27.93
2023-05-02T05:04:38.208Z,27.97
2023-05-02T05:05:38.238Z,28.00
2023-05-02T05:06:38.304Z,27.90
2023-05-02T05:07:38.258Z,27.93
2023-05-02T05:08:38.269Z,27.91
2023-05-02T05:09:38.247Z,28.02
2023-05-02T05:10:38.240Z,27.97
2023-05-02T05:11:38.215Z,27.96
2023-05-02T05:12:38.214Z,28.00
2023-05-02T05:13:38.206Z,28.05
2023-05-02T05:14:38.196Z,28.13
2023-05-02T05:15:38.195Z,28.14
2023-05-02T05:16:38.231Z,28.17
2023-05-02T05:17:38.224Z,28.18
2023-05-02T05:18:38.164Z,28.11
2023-05-02T05:19:38.146Z,28.11
2023-05-02T05:20:38.141Z,28.07
2023-05-02T05:21:38.134Z,28.11
2023-05-02T05:22:38.118Z,28.08
2023-05-02T05:23:38.109Z,28.04
2023-05-02T05:24:38.091Z,28.01
2023-05-02T05:25:38.112Z,28.03
2023-05-02T05:26:38.159Z,27.97
2023-05-02T05:27:38.214Z,27.97
2023-05-02T05:28:38.257Z,27.96
2023-05-02T05:29:38.349Z,27.97
2023-05-02T05:30:38.361Z,27.96
2023-05-02T05:31:39.403Z,28.11
2023-05-02T05:32:38.586Z,28.45
2023-05-02T05:33:38.628Z,29.45
2023-05-02T05:34:38.573Z,29.62
2023-05-02T05:35:38.597Z,29.66
2023-05-02T05:36:38.644Z,29.78
2023-05-02T05:37:38.690Z,30.41
2023-05-02T05:38:38.716Z,30.21
2023-05-02T05:39:38.750Z,30.80
2023-05-02T05:40:38.806Z,30.43
2023-05-02T05:41:38.780Z,30.35
2023-05-02T05:42:38.825Z,30.44
2023-05-02T05:43:38.794Z,30.45
2023-05-02T05:44:38.809Z,30.89
2023-05-02T05:45:38.809Z,30.57
2023-05-02T05:46:38.910Z,30.46
2023-05-02T05:47:38.992Z,30.46
2023-05-02T05:48:38.837Z,30.52
2023-05-02T05:49:39.132Z,30.60
2023-05-02T05:50:38.815Z,31.01
2023-05-02T05:51:38.828Z,29.25
2023-05-02T05:52:38.862Z,29.06
2023-05-02T05:53:38.882Z,29.52
2023-05-02T05:54:38.879Z,28.61
2023-05-02T05:55:40.781Z,28.30
2023-05-02T05:56:38.914Z,29.17
2023-05-02T05:57:38.910Z,29.12
2023-05-02T05:58:38.895Z,29.37
2023-05-02T05:59:38.891Z,29.63
2023-05-02T06:00:38.887Z,29.91
2023-05-02T06:01:38.901Z,30.24
2023-05-02T06:02:39.030Z,30.61
2023-05-02T06:03:39.001Z,30.77
2023-05-02T06:04:38.947Z,30.55
2023-05-02T06:05:38.868Z,30.82
2023-05-02T06:06:38.934Z,31.26
2023-05-02T06:07:38.864Z,30.80
2023-05-02T06:08:38.852Z,30.84
2023-05-02T06:09:38.856Z,30.68
2023-05-02T06:10:38.860Z,31.22
2023-05-02T06:11:38.858Z,31.56
2023-05-02T06:12:38.845Z,31.59
2023-05-02T06:13:38.937Z,31.70
2023-05-02T06:14:38.881Z,31.81
2023-05-02T06:15:38.881Z,31.82
2023-05-02T06:16:38.920Z,31.94
2023-05-02T06:17:38.963Z,31.93
2023-05-02T06:18:38.818Z,31.90
2023-05-02T06:19:38.844Z,31.85
2023-05-02T06:20:38.808Z,31.85
2023-05-02T06:21:38.794Z,31.72
2023-05-02T06:22:38.788Z,31.56
2023-05-02T06:23:38.784Z,31.65
2023-05-02T06:24:38.765Z,31.57
2023-05-02T06:25:38.747Z,31.64
2023-05-02T06:26:38.728Z,31.51
2023-05-02T06:27:38.732Z,31.56
2023-05-02T06:28:38.714Z,31.61
2023-05-02T06:29:38.680Z,31.49
2023-05-02T06:30:38.672Z,31.46
2023-05-02T06:31:38.717Z,31.59
2023-05-02T06:32:38.768Z,31.47
2023-05-02T06:33:38.769Z,31.43
2023-05-02T06:34:38.800Z,31.36
2023-05-02T06:35:38.796Z,31.31
2023-05-02T06:36:38.789Z,31.23
2023-05-02T06:37:38.786Z,31.39
2023-05-02T06:38:38.741Z,31.45
2023-05-02T06:39:38.734Z,31.51
2023-05-02T06:40:38.702Z,31.53
2023-05-02T06:41:38.701Z,31.96
2023-05-02T06:42:38.697Z,30.42
2023-05-02T06:43:38.666Z,30.98
2023-05-02T06:44:38.668Z,31.24
2023-05-02T06:45:38.642Z,30.75
2023-05-02T06:46:38.709Z,30.16
2023-05-02T06:47:38.685Z,30.02
2023-05-02T06:48:38.597Z,29.60
2023-05-02T06:49:38.680Z,29.61
2023-05-02T06:50:38.682Z,29.44
2023-05-02T06:51:38.713Z,29.18
2023-05-02T06:52:38.775Z,29.57
2023-05-02T06:53:38.801Z,29.50
2023-05-02T06:54:38.858Z,29.33
2023-05-02T06:55:38.883Z,29.56
2023-05-02T06:56:38.861Z,28.84
2023-05-02T06:57:38.874Z,29.43
2023-05-02T06:58:38.880Z,29.30
2023-05-02T06:59:38.875Z,29.35
2023-05-02T07:00:38.973Z,29.21
2023-05-02T07:01:38.908Z,29.25
2023-05-02T07:02:38.897Z,29.47
2023-05-02T07:03:38.892Z,29.41
2023-05-02T07:04:39.074Z,29.15
2023-05-02T07:05:38.911Z,29.55
2023-05-02T07:06:38.990Z,29.35
2023-05-02T07:07:38.883Z,29.31
2023-05-02T07:08:38.875Z,29.31
2023-05-02T07:09:38.887Z,29.82
2023-05-02T07:10:38.851Z,29.39
2023-05-02T07:11:38.921Z,29.46
2023-05-02T07:12:38.852Z,29.28
2023-05-02T07:13:38.834Z,29.73
2023-05-02T07:14:38.827Z,29.54
2023-05-02T07:15:38.809Z,29.36
2023-05-02T07:16:38.860Z,29.61
2023-05-02T07:17:38.853Z,29.29
2023-05-02T07:18:38.763Z,29.63
2023-05-02T07:19:38.758Z,29.33
2023-05-02T07:20:38.766Z,29.49
2023-05-02T07:21:38.730Z,29.46
2023-05-02T07:22:38.735Z,29.36
2023-05-02T07:23:38.727Z,29.30
2023-05-02T07:24:38.702Z,29.62
2023-05-02T07:25:38.702Z,29.79
2023-05-02T07:26:38.698Z,29.53
2023-05-02T07:27:38.684Z,29.26
2023-05-02T07:28:38.675Z,29.84
2023-05-02T07:29:38.696Z,29.47
2023-05-02T07:30:38.733Z,29.66
2023-05-02T07:31:38.805Z,29.44
2023-05-02T07:32:38.853Z,29.44
2023-05-02T07:33:38.827Z,29.70
2023-05-02T07:34:38.845Z,29.51
2023-05-02T07:35:38.867Z,29.51
2023-05-02T07:36:38.917Z,30.13
2023-05-02T07:37:39.001Z,30.69
2023-05-02T07:38:38.999Z,30.56
2023-05-02T07:39:39.029Z,30.63
2023-05-02T07:40:39.069Z,30.69
2023-05-02T07:41:39.100Z,30.88
2023-05-02T07:42:39.116Z,30.80
2023-05-02T07:43:39.121Z,30.79
2023-05-02T07:44:39.122Z,30.79
2023-05-02T07:45:39.151Z,30.80
2023-05-02T07:46:39.241Z,30.89
2023-05-02T07:47:39.208Z,30.77
2023-05-02T07:48:39.230Z,30.74
2023-05-02T07:49:39.287Z,30.74
2023-05-02T07:50:39.359Z,30.74
2023-05-02T07:51:39.383Z,30.78
2023-05-02T07:52:39.426Z,30.79
2023-05-02T07:53:39.466Z,30.71
2023-05-02T07:54:39.460Z,30.71
2023-05-02T07:55:39.482Z,30.76
2023-05-02T07:56:39.502Z,30.73
2023-05-02T07:57:39.530Z,30.73
2023-05-02T07:58:39.548Z,30.74
2023-05-02T07:59:39.542Z,30.75
2023-05-02T08:00:39.553Z,30.75
2023-05-02T08:01:39.583Z,30.74
2023-05-02T08:02:39.622Z,30.80
2023-05-02T08:03:39.747Z,30.76
2023-05-02T08:04:39.581Z,30.74
2023-05-02T08:05:39.556Z,30.69
2023-05-02T08:06:39.572Z,30.84
2023-05-02T08:07:39.562Z,30.89
2023-05-02T08:08:39.506Z,30.77
2023-05-02T08:09:39.490Z,30.75
2023-05-02T08:10:39.461Z,30.71
2023-05-02T08:11:39.450Z,30.67
2023-05-02T08:12:39.433Z,30.63
2023-05-02T08:13:39.409Z,30.56
2023-05-02T08:14:39.438Z,30.50
2023-05-02T08:15:39.405Z,30.46
2023-05-02T08:16:39.401Z,30.45
2023-05-02T08:17:39.409Z,30.51
2023-05-02T08:18:39.329Z,30.44
2023-05-02T08:19:39.306Z,30.41
2023-05-02T08:20:39.295Z,30.43
2023-05-02T08:21:39.303Z,30.37
2023-05-02T08:22:39.267Z,30.36
2023-05-02T08:23:39.245Z,30.32
2023-05-02T08:24:39.214Z,30.29
2023-05-02T08:25:39.207Z,30.09
2023-05-02T08:26:39.182Z,30.15
2023-05-02T08:27:39.165Z,30.26
2023-05-02T08:28:39.141Z,30.38
2023-05-02T08:29:39.127Z,30.46
2023-05-02T08:30:39.120Z,30.46
2023-05-02T08:31:39.134Z,30.22
2023-05-02T08:32:39.116Z,29.97
2023-05-02T08:33:39.078Z,29.69
2023-05-02T08:34:39.037Z,29.62
2023-05-02T08:35:39.015Z,29.47
2023-05-02T08:36:39.006Z,29.30
2023-05-02T08:37:39.026Z,29.30
2023-05-02T08:38:38.975Z,29.18
2023-05-02T08:39:38.939Z,29.20
2023-05-02T08:40:42.285Z,29.19
2023-05-02T08:41:38.915Z,29.19
2023-05-02T08:42:38.903Z,29.20
2023-05-02T08:43:38.869Z,29.01
2023-05-02T08:44:38.864Z,29.00
2023-05-02T08:45:38.844Z,29.17
2023-05-02T08:46:38.856Z,29.17
2023-05-02T08:47:38.845Z,29.62
2023-05-02T08:48:38.793Z,29.47
2023-05-02T08:49:38.775Z,29.52
2023-05-02T08:50:38.766Z,30.60
2023-05-02T08:51:40.342Z,30.37
2023-05-02T08:52:38.732Z,29.85
2023-05-02T08:53:38.720Z,29.89
2023-05-02T08:54:38.708Z,29.85
2023-05-02T08:55:38.681Z,29.55
2023-05-02T08:56:38.659Z,29.49
2023-05-02T08:57:38.668Z,29.34
2023-05-02T08:58:38.657Z,29.33
2023-05-02T08:59:38.640Z,29.27
2023-05-02T09:00:38.609Z,29.24
2023-05-02T09:01:38.681Z,29.23
2023-05-02T09:02:38.634Z,29.30
2023-05-02T09:03:38.586Z,29.22
2023-05-02T09:04:38.587Z,29.17
2023-05-02T09:05:38.516Z,29.21
2023-05-02T09:06:38.556Z,29.18
2023-05-02T09:07:38.482Z,29.10
2023-05-02T09:08:38.565Z,29.12
2023-05-02T09:09:38.453Z,29.10
2023-05-02T09:10:38.449Z,28.99
2023-05-02T09:11:38.420Z,29.01
2023-05-02T09:12:38.392Z,29.01
2023-05-02T09:13:38.408Z,28.99
2023-05-02T09:14:38.350Z,29.07
2023-05-02T09:15:38.338Z,29.03
2023-05-02T09:16:38.363Z,29.00
2023-05-02T09:17:38.314Z,29.00
2023-05-02T09:18:38.286Z,28.93
2023-05-02T09:19:38.260Z,28.90
2023-05-02T09:20:38.229Z,28.96
2023-05-02T09:21:38.224Z,28.97
2023-05-02T09:22:38.190Z,28.97
2023-05-02T09:23:38.158Z,28.99
2023-05-02T09:24:38.145Z,28.90
2023-05-02T09:25:38.133Z,28.96
2023-05-02T09:26:38.182Z,28.94
2023-05-02T09:27:38.210Z,28.96
2023-05-02T09:28:38.252Z,28.94
2023-05-02T09:29:38.308Z,28.97
2023-05-02T09:30:38.409Z,29.01
2023-05-02T09:32:38.430Z,29.15
2023-05-02T09:33:38.355Z,29.08
2023-05-02T09:34:38.337Z,29.08
2023-05-02T09:35:38.325Z,29.05
2023-05-02T09:36:38.319Z,29.10
2023-05-02T09:37:38.305Z,29.11
2023-05-02T09:38:38.288Z,29.04
2023-05-02T09:39:38.262Z,29.04
2023-05-02T09:40:38.295Z,29.02
2023-05-02T09:41:38.227Z,28.99
2023-05-02T09:42:38.207Z,29.58
2023-05-02T09:43:38.200Z,29.75
2023-05-02T09:44:38.262Z,29.84
2023-05-02T09:45:38.167Z,30.03
2023-05-02T09:46:38.215Z,30.25
2023-05-02T09:47:38.267Z,30.36
2023-05-02T09:48:38.110Z,30.18
2023-05-02T09:49:38.106Z,30.31
2023-05-02T09:50:38.201Z,30.46
2023-05-02T09:51:38.113Z,30.42
2023-05-02T09:52:38.052Z,30.39
2023-05-02T09:53:38.047Z,30.43
2023-05-02T09:54:38.096Z,30.34
2023-05-02T09:55:38.045Z,30.37
2023-05-02T09:56:38.026Z,30.31
2023-05-02T09:57:38.020Z,30.36
2023-05-02T09:58:38.020Z,30.52
2023-05-02T09:59:38.020Z,30.65
2023-05-02T10:00:37.971Z,30.79
2023-05-02T10:01:38.039Z,30.53
2023-05-02T10:02:37.953Z,30.15
2023-05-02T10:03:38.010Z,30.30
2023-05-02T10:04:38.090Z,30.15
2023-05-02T10:05:37.897Z,29.98
2023-05-02T10:06:37.931Z,29.91
2023-05-02T10:07:37.996Z,29.85
2023-05-02T10:08:37.845Z,30.14
2023-05-02T10:09:37.812Z,30.28
2023-05-02T10:10:37.811Z,29.82
2023-05-02T10:11:37.766Z,29.74
2023-05-02T10:12:37.765Z,29.78
2023-05-02T10:13:37.742Z,29.80
2023-05-02T10:14:37.703Z,29.81
2023-05-02T10:15:37.778Z,29.91
2023-05-02T10:16:37.675Z,30.00
2023-05-02T10:17:37.744Z,29.85
2023-05-02T10:18:37.623Z,30.29
2023-05-02T10:19:37.624Z,30.68
2023-05-02T10:20:37.633Z,30.51
2023-05-02T10:21:37.592Z,30.47
2023-05-02T10:22:37.581Z,30.50
2023-05-02T10:23:37.589Z,30.45
2023-05-02T10:24:37.576Z,30.46
2023-05-02T10:25:37.527Z,30.01
2023-05-02T10:26:37.528Z,29.98
2023-05-02T10:27:37.494Z,30.04
2023-05-02T10:28:37.495Z,29.94
2023-05-02T10:29:37.429Z,29.72
2023-05-02T10:30:37.404Z,29.81
2023-05-02T10:31:37.457Z,30.01
2023-05-02T10:32:37.388Z,30.00
2023-05-02T10:33:37.342Z,30.04
2023-05-02T10:34:37.322Z,30.50
2023-05-02T10:35:37.292Z,30.53
2023-05-02T10:36:37.282Z,30.62
2023-05-02T10:37:37.223Z,30.84
2023-05-02T10:38:37.201Z,31.17
2023-05-02T10:39:37.169Z,30.69
2023-05-02T10:40:37.150Z,30.77
2023-05-02T10:41:37.134Z,30.55
2023-05-02T10:42:37.425Z,29.74
2023-05-02T10:43:37.093Z,29.13
2023-05-02T10:44:37.114Z,29.09
2023-05-02T10:45:37.064Z,29.59
2023-05-02T10:46:37.147Z,29.56
2023-05-02T10:47:37.100Z,29.12
2023-05-02T10:48:37.119Z,29.21
2023-05-02T10:49:37.087Z,29.11
2023-05-02T10:50:37.111Z,29.12
2023-05-02T10:51:37.166Z,29.08
2023-05-02T10:52:37.192Z,29.58
2023-05-02T10:53:37.236Z,29.69
2023-05-02T10:54:37.212Z,29.67
2023-05-02T10:55:37.188Z,29.57
2023-05-02T10:56:37.171Z,29.71
2023-05-02T10:57:37.155Z,29.93
2023-05-02T10:58:37.143Z,29.55
2023-05-02T10:59:37.125Z,30.04
2023-05-02T11:00:37.114Z,29.86
2023-05-02T11:01:37.082Z,29.95
2023-05-02T11:02:37.127Z,29.49
2023-05-02T11:03:37.090Z,29.38
2023-05-02T11:04:37.033Z,29.28
2023-05-02T11:05:37.025Z,29.66
2023-05-02T11:06:37.039Z,29.55
2023-05-02T11:07:36.977Z,29.68
2023-05-02T11:08:36.984Z,29.80
2023-05-02T11:09:36.979Z,30.10
2023-05-02T11:10:36.955Z,29.58
2023-05-02T11:11:36.978Z,29.51
2023-05-02T11:12:37.036Z,29.64
2023-05-02T11:13:37.096Z,29.68
2023-05-02T11:14:37.089Z,29.53
2023-05-02T11:15:37.086Z,29.72
2023-05-02T11:16:37.087Z,29.41
2023-05-02T11:17:37.094Z,29.84
2023-05-02T11:18:37.038Z,30.08
2023-05-02T11:19:37.004Z,29.85
2023-05-02T11:20:36.994Z,29.75
2023-05-02T11:21:36.980Z,30.45
2023-05-02T11:22:36.937Z,30.53
2023-05-02T11:23:37.003Z,30.59
2023-05-02T11:24:36.928Z,30.75
2023-05-02T11:25:36.883Z,30.67
2023-05-02T11:26:36.850Z,30.83
2023-05-02T11:27:36.846Z,30.84
2023-05-02T11:28:36.843Z,30.73
2023-05-02T11:29:36.776Z,30.60
2023-05-02T11:30:36.754Z,30.49
2023-05-02T11:31:36.813Z,30.39
2023-05-02T11:32:36.778Z,30.29
2023-05-02T11:33:36.673Z,30.18
2023-05-02T11:34:36.652Z,30.10
2023-05-02T11:35:36.617Z,29.99
2023-05-02T11:36:36.595Z,30.03
2023-05-02T11:37:36.601Z,29.99
2023-05-02T11:38:36.560Z,29.93
2023-05-02T11:39:36.513Z,29.89
2023-05-02T11:40:36.488Z,29.85
2023-05-02T11:41:36.460Z,29.78
2023-05-02T11:42:36.444Z,29.74
2023-05-02T11:43:36.437Z,29.69
2023-05-02T11:44:36.388Z,29.64
2023-05-02T11:45:36.412Z,29.57
2023-05-02T11:46:36.385Z,30.29
2023-05-02T11:47:36.331Z,29.63
2023-05-02T11:48:36.302Z,29.75
2023-05-02T11:49:36.260Z,29.73
2023-05-02T11:50:36.808Z,29.79
2023-05-02T11:51:36.202Z,29.67
2023-05-02T11:52:36.209Z,29.63
2023-05-02T11:53:36.174Z,29.59
2023-05-02T11:54:36.168Z,29.40
2023-05-02T11:55:36.186Z,29.45
2023-05-02T11:56:36.155Z,29.40
2023-05-02T11:57:36.145Z,29.35
2023-05-02T11:58:36.149Z,29.32
2023-05-02T11:59:36.109Z,29.28
2023-05-02T12:00:36.113Z,29.61
2023-05-02T12:01:36.080Z,29.38
2023-05-02T12:02:36.184Z,29.27
2023-05-02T12:03:36.159Z,29.24
2023-05-02T12:04:36.057Z,29.28
2023-05-02T12:05:36.152Z,29.26
2023-05-02T12:06:36.089Z,29.24
2023-05-02T12:07:35.985Z,29.08
2023-05-02T12:08:35.961Z,29.09
2023-05-02T12:09:35.968Z,29.12
2023-05-02T12:10:35.933Z,29.03
2023-05-02T12:11:35.924Z,29.03
2023-05-02T12:12:35.893Z,28.95
2023-05-02T12:13:35.907Z,28.99
2023-05-02T12:14:35.862Z,28.90
2023-05-02T12:15:35.838Z,28.79
2023-05-02T12:16:35.880Z,28.82
2023-05-02T12:17:35.857Z,28.82
2023-05-02T12:18:35.806Z,28.78
2023-05-02T12:19:35.800Z,28.71
2023-05-02T12:20:35.769Z,28.72
2023-05-02T12:21:35.805Z,28.67
2023-05-02T12:22:35.748Z,28.68
2023-05-02T12:23:37.263Z,28.62
2023-05-02T12:24:35.742Z,28.68
2023-05-02T12:25:35.704Z,28.64
2023-05-02T12:26:35.714Z,28.57
2023-05-02T12:27:35.717Z,28.58
2023-05-02T12:28:35.754Z,28.55
2023-05-02T12:29:35.722Z,28.57
2023-05-02T12:30:35.687Z,28.54
2023-05-02T12:31:35.741Z,28.50
2023-05-02T12:32:35.660Z,28.56
2023-05-02T12:33:35.627Z,28.54
2023-05-02T12:34:35.592Z,28.47
2023-05-02T12:35:35.560Z,28.53
2023-05-02T12:36:35.524Z,28.53
2023-05-02T12:37:35.499Z,28.50
2023-05-02T12:38:35.498Z,28.53
2023-05-02T12:39:35.501Z,28.49
2023-05-02T12:40:35.505Z,28.53
2023-05-02T12:41:35.513Z,28.47
2023-05-02T12:42:35.535Z,28.56
2023-05-02T12:43:36.642Z,28.46
2023-05-02T12:44:35.659Z,28.43
2023-05-02T12:45:35.666Z,28.47
2023-05-02T12:46:35.720Z,28.47
2023-05-02T12:47:35.785Z,28.46
2023-05-02T12:48:35.780Z,28.45
2023-05-02T12:49:35.822Z,28.47
2023-05-02T12:50:35.852Z,28.43
2023-05-02T12:51:35.887Z,28.40
2023-05-02T12:52:35.864Z,28.38
2023-05-02T12:53:35.846Z,28.40